Time;durP1;ratioP1;P1;durP2;ratioP2;P2;SDS_P1;SDS_P2;PMS_P1;PMS_P2;Temp;Humidity;BMP_temperature;BMP_pressure;BME280_temperature;BME280_humidity;BME280_pressure;Samples;Min_cycle;Max_cycle;Signal;HPM_P1;HPM_P2
2021/11/20 00:02:40;;;;;;;4.22;1.75;;;;;;;18.01;59.12;102924.91;4769575;30;20036;-82
2021/11/20 00:05:31;;;;;;;2.72;1.55;;;;;;;18.02;59.18;102929.25;4759959;30;20043;-82
2021/11/20 00:11:22;;;;;;;2.70;1.52;;;;;;;18.00;59.15;102929.19;4792442;30;20092;-82
2021/11/20 00:24:11;;;;;;;2.53;1.58;;;;;;;18.00;59.07;102920.50;4792522;29;20022;-83
2021/11/20 00:30:22;;;;;;;2.40;1.20;;;;;;;18.01;59.05;102925.78;4792775;30;20034;-83
2021/11/20 00:33:12;;;;;;;2.58;1.65;;;;;;;18.01;59.12;102910.13;4791036;29;20027;-83
2021/11/20 00:39:20;;;;;;;2.65;1.25;;;;;;;18.00;58.77;102912.69;4829383;29;20021;-83
2021/11/20 00:45:08;;;;;;;3.17;1.60;;;;;;;18.02;59.08;102916.22;4797250;30;20119;-83
2021/11/20 00:47:42;;;;;;;2.75;1.50;;;;;;;17.99;59.10;102908.34;4809443;29;20042;-83
2021/11/20 00:53:30;;;;;;;2.38;1.40;;;;;;;18.01;58.98;102909.28;4810125;29;20142;-83
2021/11/20 00:55:59;;;;;;;2.40;1.38;;;;;;;18.00;58.90;102910.09;4792061;30;20047;-83
2021/11/20 00:58:27;;;;;;;2.55;1.30;;;;;;;18.01;59.07;102910.13;4809483;30;20068;-83
2021/11/20 01:01:36;;;;;;;3.10;1.40;;;;;;;18.01;58.83;102904.94;4780696;30;20047;-81
2021/11/20 01:04:34;;;;;;;1.90;1.10;;;;;;;18.01;58.88;102901.44;4803314;30;20071;-82
2021/11/20 01:07:01;;;;;;;2.75;1.30;;;;;;;17.99;58.71;102904.00;4775235;30;20059;-81
2021/11/20 01:09:32;;;;;;;2.45;1.40;;;;;;;17.99;58.93;102901.41;4790735;30;20072;-81
2021/11/20 01:12:07;;;;;;;3.00;1.35;;;;;;;17.99;58.81;102900.53;4777485;30;20035;-82
2021/11/20 01:14:34;;;;;;;2.10;1.40;;;;;;;17.99;59.29;102898.81;4811259;29;20047;-82
2021/11/20 01:17:05;;;;;;;2.80;1.40;;;;;;;17.99;58.82;102884.91;4828049;29;20031;-82
2021/11/20 01:19:32;;;;;;;2.58;1.30;;;;;;;18.00;58.90;102887.53;4827536;29;20069;-82
2021/11/20 01:25:27;;;;;;;1.85;1.10;;;;;;;18.01;59.06;102893.63;4830116;29;20457;-82
2021/11/20 01:27:55;;;;;;;2.25;1.10;;;;;;;18.00;58.89;102889.25;4797035;29;20065;-82
2021/11/20 01:30:56;;;;;;;3.47;1.30;;;;;;;17.99;59.00;102882.31;4829082;29;20031;-82
2021/11/20 01:36:47;;;;;;;2.25;1.15;;;;;;;18.00;58.92;102889.25;4826598;29;20060;-82
2021/11/20 01:39:19;;;;;;;3.65;1.20;;;;;;;18.00;58.66;102890.13;4811594;29;20042;-82
2021/11/20 01:41:57;;;;;;;2.28;1.17;;;;;;;17.98;58.93;102877.91;4811349;29;20041;-82
2021/11/20 01:44:32;;;;;;;1.90;1.00;;;;;;;17.98;58.78;102875.31;4804576;29;20063;-81
2021/11/20 01:47:10;;;;;;;2.63;1.33;;;;;;;18.00;58.65;102878.84;4806820;29;20047;-81
2021/11/20 01:49:46;;;;;;;2.28;1.25;;;;;;;17.98;58.80;102878.78;4808136;29;20031;-81
2021/11/20 01:52:23;;;;;;;1.75;1.08;;;;;;;17.98;58.75;102876.19;4815776;29;20054;-82
2021/11/20 01:55:00;;;;;;;1.83;1.10;;;;;;;17.98;58.71;102877.91;4842621;29;20046;-82
2021/11/20 01:57:47;;;;;;;2.33;1.20;;;;;;;17.99;58.75;102874.47;4844242;29;20054;-82
2021/11/20 02:03:46;;;;;;;2.40;1.23;;;;;;;17.99;58.70;102869.28;4843054;29;20051;-82
2021/11/20 02:06:27;;;;;;;2.20;1.20;;;;;;;17.99;58.82;102869.28;4842980;29;20034;-82
2021/11/20 02:09:06;;;;;;;1.85;1.13;;;;;;;17.99;58.81;102872.75;4841721;29;20038;-82
2021/11/20 02:11:38;;;;;;;1.85;1.10;;;;;;;17.99;58.67;102880.56;4828860;29;20039;-81
2021/11/20 02:14:08;;;;;;;2.35;1.30;;;;;;;17.99;58.77;102872.75;4813455;29;20041;-82
2021/11/20 02:16:47;;;;;;;3.38;1.10;;;;;;;17.98;58.87;102863.16;4843593;29;20041;-82
2021/11/20 02:19:18;;;;;;;2.10;1.17;;;;;;;17.97;58.70;102856.22;4816954;29;20039;-82
2021/11/20 02:22:40;;;;;;;2.83;1.17;;;;;;;17.99;58.74;102856.25;4848610;29;20030;-82
2021/11/20 02:25:50;;;;;;;2.00;1.17;;;;;;;17.99;58.61;102861.47;4839110;29;20082;-81
2021/11/20 02:28:17;;;;;;;2.22;1.08;;;;;;;17.98;58.62;102859.69;4843609;29;20392;-82
2021/11/20 02:30:47;;;;;;;2.17;1.00;;;;;;;17.96;58.76;102862.25;4845426;29;20041;-82
2021/11/20 02:33:30;;;;;;;2.17;1.40;;;;;;;17.98;58.57;102857.09;4829858;29;20026;-82
2021/11/20 02:36:13;;;;;;;1.38;1.20;;;;;;;17.97;58.83;102851.00;4844104;29;20038;-82
2021/11/20 02:39:13;;;;;;;2.53;1.20;;;;;;;17.98;58.79;102844.06;4848653;29;20069;-82
2021/11/20 02:41:46;;;;;;;1.60;1.10;;;;;;;17.96;58.59;102845.75;4848663;29;20063;-83
2021/11/20 02:47:33;;;;;;;3.20;0.95;;;;;;;17.96;58.65;102846.63;4848500;29;20274;-83
2021/11/20 02:57:41;;;;;;;2.58;1.00;;;;;;;17.97;58.80;102826.69;4850077;29;20064;-82
2021/11/20 03:01:03;;;;;;;1.92;1.15;;;;;;;17.97;58.55;102821.47;4848655;29;20046;-82
2021/11/20 03:07:44;;;;;;;1.25;0.82;;;;;;;17.96;58.33;102814.50;4808340;29;20111;-81
2021/11/20 03:10:17;;;;;;;2.13;1.00;;;;;;;17.97;58.56;102813.66;4834529;29;20036;-83
2021/11/20 03:12:47;;;;;;;1.77;1.10;;;;;;;17.94;58.50;102801.41;4832528;29;20042;-83
2021/11/20 03:15:35;;;;;;;1.33;0.80;;;;;;;17.95;58.73;102799.72;4847745;29;20079;-83
2021/11/20 03:18:08;;;;;;;1.00;0.80;;;;;;;17.95;58.34;102795.38;4833177;29;20033;-83
2021/11/20 03:24:24;;;;;;;1.00;0.80;;;;;;;17.94;58.32;102796.22;4848448;29;20041;-82
2021/11/20 03:27:18;;;;;;;1.70;1.05;;;;;;;17.96;58.61;102806.69;4832792;29;20072;-83
2021/11/20 03:29:48;;;;;;;1.30;0.90;;;;;;;17.95;58.29;102794.50;4847759;29;20034;-83
2021/11/20 03:42:05;;;;;;;1.42;1.00;;;;;;;17.93;58.28;102784.06;4848509;29;20052;-83
2021/11/20 03:48:12;;;;;;;1.90;1.10;;;;;;;17.93;58.52;102783.19;4844911;29;20058;-81
2021/11/20 03:50:45;;;;;;;1.80;0.95;;;;;;;17.94;58.35;102790.13;4809738;29;20086;-84
2021/11/20 03:53:38;;;;;;;1.47;0.83;;;;;;;17.93;58.66;102777.97;4826078;29;20058;-83
2021/11/20 03:56:04;;;;;;;1.77;0.98;;;;;;;17.91;58.10;102764.03;4827807;29;20311;-83
2021/11/20 03:58:33;;;;;;;1.17;0.80;;;;;;;17.92;58.12;102761.47;4827343;29;20052;-83
2021/11/20 04:01:18;;;;;;;1.85;0.90;;;;;;;17.92;58.27;102765.78;4827292;29;20042;-84
2021/11/20 04:03:48;;;;;;;1.00;0.80;;;;;;;17.92;58.28;102769.28;4826928;29;20031;-83
2021/11/20 04:06:53;;;;;;;1.67;1.10;;;;;;;17.94;58.43;102771.91;4827521;29;20149;-83
2021/11/20 04:09:22;;;;;;;2.00;0.90;;;;;;;17.93;58.26;102780.56;4826548;29;20069;-82
2021/11/20 04:11:52;;;;;;;1.20;0.80;;;;;;;17.92;58.34;102778.81;4808395;29;20032;-83
2021/11/20 04:14:41;;;;;;;0.88;0.55;;;;;;;17.93;58.48;102775.38;4809250;29;20035;-82
2021/11/20 04:20:08;;;;;;;1.88;0.82;;;;;;;17.93;58.27;102775.38;5210816;24;20041;-83
2021/11/20 04:22:44;;;;;;;1.30;0.80;;;;;;;17.91;58.38;102766.66;4850991;29;20054;-83
2021/11/20 04:28:58;;;;;;;2.17;0.80;;;;;;;17.91;58.29;102769.25;4866492;29;20050;-83
2021/11/20 04:35:21;;;;;;;2.05;0.90;;;;;;;17.92;58.30;102768.38;4865540;29;20029;-83
2021/11/20 04:37:55;;;;;;;;;;;;;;;17.91;58.15;102770.13;4851385;29;20040;-84
2021/11/20 04:47:30;;;;;;;1.25;0.70;;;;;;;17.91;58.26;102759.69;4847178;29;20053;-83
2021/11/20 04:50:20;;;;;;;1.15;0.80;;;;;;;17.91;58.10;102762.31;4831669;29;20051;-84
2021/11/20 04:56:47;;;;;;;2.00;0.90;;;;;;;17.88;58.07;102757.03;4810350;29;20106;-83
2021/11/20 05:03:05;;;;;;;1.40;0.88;;;;;;;17.89;58.14;102751.84;4810748;30;20045;-83
2021/11/20 05:09:05;;;;;;;1.33;0.75;;;;;;;17.89;58.13;102751.84;4810181;29;20084;-82
2021/11/20 05:11:50;;;;;;;1.42;0.82;;;;;;;17.89;58.12;102753.59;4789653;30;20051;-81
2021/11/20 05:14:41;;;;;;;1.80;0.80;;;;;;;17.89;58.19;102757.06;4797438;30;20035;-84
2021/11/20 05:17:48;;;;;;;1.27;0.80;;;;;;;17.88;57.92;102749.22;4779954;29;20043;-83
2021/11/20 05:24:01;;;;;;;1.10;0.82;;;;;;;17.89;57.81;102753.59;4792604;29;20069;-84
2021/11/20 06:29:18;;;;;;;1.00;0.60;;;;;;;17.95;58.08;102672.97;5892845;24;20075;31
2021/11/20 06:31:47;;;;;;;1.13;0.70;;;;;;;17.97;58.08;102673.00;4786976;30;20262;-78
2021/11/20 06:34:14;;;;;;;1.00;0.60;;;;;;;17.96;58.04;102669.50;4779564;30;20054;-81
2021/11/20 06:36:44;;;;;;;0.82;0.60;;;;;;;17.95;58.18;102662.53;4783723;30;20109;-82
2021/11/20 06:39:18;;;;;;;1.60;0.90;;;;;;;17.96;58.15;102671.22;4790300;30;20016;-82
2021/11/20 06:41:44;;;;;;;1.38;0.70;;;;;;;17.96;58.16;102666.00;4775296;30;20099;-82
2021/11/20 06:44:11;;;;;;;1.35;0.80;;;;;;;17.95;58.33;102666.88;4775204;30;20031;-82
2021/11/20 06:46:38;;;;;;;0.80;0.60;;;;;;;17.96;58.41;102666.88;4789353;30;20046;-80
2021/11/20 06:49:04;;;;;;;1.10;0.60;;;;;;;17.95;57.91;102665.13;4784261;30;20036;-81
2021/11/20 06:51:31;;;;;;;0.80;0.70;;;;;;;17.96;58.30;102663.41;4783129;30;20047;-81
2021/11/20 06:53:57;;;;;;;1.88;1.00;;;;;;;17.99;58.62;102671.28;4788008;30;20048;-82
2021/11/20 06:56:28;;;;;;;1.23;0.90;;;;;;;17.96;58.35;102660.81;4786612;30;20035;-81
2021/11/20 07:01:34;;;;;;;1.17;0.63;;;;;;;17.96;58.52;102661.66;4784434;30;20027;-81
2021/11/20 07:04:04;;;;;;;1.20;0.75;;;;;;;17.96;58.41;102663.41;4786979;30;20053;-82
2021/11/20 07:06:56;;;;;;;0.88;0.70;;;;;;;17.97;58.50;102666.06;4772995;30;20031;-82
2021/11/20 07:09:23;;;;;;;0.93;0.70;;;;;;;17.95;58.72;102659.94;4773295;29;20027;-81
2021/11/20 07:21:28;;;;;;;2.28;1.13;;;;;;;17.97;58.52;102663.44;4756764;30;20020;-80
2021/11/20 07:23:56;;;;;;;13.85;3.50;;;;;;;18.01;58.74;102660.03;4740518;30;20488;-79
2021/11/20 07:26:22;;;;;;;18.98;3.47;;;;;;;18.05;58.96;102653.13;4738628;30;20044;-79
2021/11/20 07:28:50;;;;;;;12.60;4.05;;;;;;;18.06;58.70;102655.78;4736377;30;20041;-79
2021/11/20 07:31:16;;;;;;;22.05;4.13;;;;;;;18.07;59.01;102659.25;4747810;30;20060;-79
2021/11/20 07:33:42;;;;;;;18.25;4.18;;;;;;;18.07;58.91;102647.13;4754960;30;20044;-79
2021/11/20 07:36:08;;;;;;;10.65;3.88;;;;;;;18.08;58.78;102643.66;4754609;30;20040;-78
2021/11/20 07:38:47;;;;;;;14.45;4.10;;;;;;;18.08;58.66;102637.59;4754510;30;20098;-78
2021/11/20 07:41:13;;;;;;;11.07;3.35;;;;;;;18.08;59.23;102638.44;4754655;30;20557;-79
2021/11/20 07:43:39;;;;;;;11.23;3.33;;;;;;;18.08;58.73;102635.84;4754858;30;20063;-80
2021/11/20 07:46:08;;;;;;;9.10;3.45;;;;;;;18.09;59.09;102647.13;4755281;30;20040;-79
2021/11/20 07:48:37;;;;;;;10.35;3.30;;;;;;;18.09;58.77;102645.44;4739629;30;20039;-79
2021/11/20 07:51:04;;;;;;;7.78;3.15;;;;;;;18.09;58.97;102642.81;4755914;30;20094;-78
2021/11/20 07:53:30;;;;;;;8.23;3.30;;;;;;;18.10;59.03;102638.50;4757018;30;20033;-78
2021/11/20 07:55:55;;;;;;;9.57;3.55;;;;;;;18.09;58.88;102635.00;4756032;30;20048;-79
2021/11/20 07:58:21;;;;;;;9.45;3.47;;;;;;;18.09;59.03;102632.41;4755093;30;20135;-78
2021/11/20 08:00:47;;;;;;;7.75;3.10;;;;;;;18.09;59.13;102632.41;4752867;30;20059;-78
2021/11/20 08:03:13;;;;;;;7.28;2.60;;;;;;;18.11;59.06;102626.34;4737781;30;20482;-78
2021/11/20 08:05:40;;;;;;;7.13;3.03;;;;;;;18.10;58.87;102615.03;4752906;30;20520;-78
2021/11/20 08:08:06;;;;;;;9.98;3.33;;;;;;;18.09;58.96;102627.19;4753154;30;20036;-78
2021/11/20 08:10:33;;;;;;;7.13;2.75;;;;;;;18.10;59.16;102617.66;4753410;30;20044;-78
2021/11/20 08:12:59;;;;;;;8.27;2.97;;;;;;;18.10;58.93;102620.25;4754011;30;20036;-79
2021/11/20 08:15:27;;;;;;;6.68;2.78;;;;;;;18.09;58.77;102616.78;4753863;30;20198;-79
2021/11/20 08:17:53;;;;;;;7.20;2.83;;;;;;;18.09;59.12;102614.16;4753097;30;20102;-78
2021/11/20 08:20:25;;;;;;;9.82;2.97;;;;;;;18.09;58.93;102611.56;4759268;30;20059;-79
2021/11/20 08:22:50;;;;;;;7.63;2.75;;;;;;;18.09;58.82;102610.66;4772086;30;20070;-80
2021/11/20 08:25:22;;;;;;;7.32;2.60;;;;;;;18.10;58.79;102602.00;4772721;30;20066;-79
2021/11/20 08:27:48;;;;;;;6.20;3.30;;;;;;;18.11;59.04;102598.53;4771083;30;20080;-79
2021/11/20 08:30:16;;;;;;;6.13;2.90;;;;;;;18.09;59.04;102595.03;4771023;30;20146;-79
2021/11/20 08:32:43;;;;;;;5.45;2.70;;;;;;;18.08;59.11;102595.91;4770346;30;20525;-79
2021/11/20 08:35:08;;;;;;;7.70;2.38;;;;;;;18.08;58.88;102591.56;4771016;30;20032;-79
2021/11/20 08:37:35;;;;;;;5.15;2.50;;;;;;;18.07;59.02;102587.22;4770593;30;20046;-79
2021/11/20 08:40:06;;;;;;;4.97;2.42;;;;;;;18.08;58.73;102583.75;4770267;30;20031;-79
2021/11/20 08:42:33;;;;;;;8.23;2.70;;;;;;;18.08;58.92;102585.47;4771613;30;20035;-78
2021/11/20 08:44:59;;;;;;;5.95;2.42;;;;;;;18.08;58.71;102583.75;4770953;30;20103;-78
2021/11/20 08:47:24;;;;;;;3.88;2.38;;;;;;;18.09;58.93;102576.78;4757384;30;20031;-79
2021/11/20 08:49:50;;;;;;;4.75;2.35;;;;;;;18.08;58.71;102582.88;4757207;30;20032;-79
2021/11/20 08:52:15;;;;;;;6.82;2.83;;;;;;;18.07;58.81;102576.78;4758297;30;20035;-78
2021/11/20 08:54:41;;;;;;;6.50;2.70;;;;;;;18.08;59.00;102572.44;4777531;30;20028;-80
2021/11/20 08:57:07;;;;;;;5.15;2.83;;;;;;;18.07;58.97;102562.88;4763069;30;20036;-80
2021/11/20 08:59:33;;;;;;;5.25;1.92;;;;;;;18.22;58.87;102564.84;4762190;30;20027;-78
2021/11/20 09:02:21;;;;;;;9.10;2.42;;;;;;;18.42;58.52;102562.53;4785058;30;20039;-80
2021/11/20 09:05:18;;;;;;;11.60;2.15;;;;;;;18.69;57.72;102567.25;4776007;30;20023;-78
2021/11/20 09:07:55;;;;;;;7.85;3.92;;;;;;;18.49;58.06;102560.03;4777468;30;20036;-78
2021/11/20 09:10:41;;;;;;;13.18;3.08;;;;;;;18.48;59.19;102560.88;4776839;30;20545;-81
2021/11/20 09:13:22;;;;;;;9.82;3.72;;;;;;;18.35;60.47;102563.28;4774769;30;20046;-80
2021/11/20 09:16:02;;;;;;;10.07;3.17;;;;;;;18.18;62.87;102561.34;4774940;30;20019;-79
2021/11/20 09:18:30;;;;;;;6.38;3.42;;;;;;;18.00;64.01;102566.22;4773360;30;20456;-79
2021/11/20 09:20:55;;;;;;;16.08;3.10;;;;;;;17.87;63.16;102558.22;4777132;30;20032;-80
2021/11/20 09:23:22;;;;;;;10.35;3.28;;;;;;;17.83;62.75;102558.13;4776574;30;20040;-79
2021/11/20 09:25:49;;;;;;;8.65;2.53;;;;;;;17.79;62.38;102556.28;4776100;30;20034;-79
2021/11/20 09:28:17;;;;;;;8.48;3.10;;;;;;;17.78;62.68;102546.75;4774523;30;20032;-79
2021/11/20 09:30:48;;;;;;;10.23;2.95;;;;;;;17.76;61.90;102546.72;4760454;30;20055;-78
2021/11/20 09:33:14;;;;;;;9.60;3.22;;;;;;;17.75;62.47;102546.69;4779505;30;20043;-80
2021/11/20 09:35:41;;;;;;;10.65;2.63;;;;;;;17.76;61.99;102551.03;4782019;30;20482;-81
2021/11/20 09:38:08;;;;;;;11.50;2.90;;;;;;;17.72;61.72;102544.03;4794315;29;20090;-79
2021/11/20 09:40:42;;;;;;;9.80;3.13;;;;;;;17.69;61.83;102548.34;4775513;30;20052;-79
2021/11/20 09:43:30;;;;;;;10.23;3.05;;;;;;;17.69;62.14;102548.34;4781119;30;20040;-80
2021/11/20 09:46:03;;;;;;;8.40;2.65;;;;;;;17.69;62.24;102548.34;4783594;30;20038;-79
2021/11/20 09:48:33;;;;;;;11.38;2.78;;;;;;;17.73;61.53;102548.41;4778351;30;20028;-80
2021/11/20 09:51:27;;;;;;;7.82;2.63;;;;;;;17.76;61.95;102559.72;4781841;30;20047;-81
2021/11/20 09:53:54;;;;;;;7.30;2.90;;;;;;;17.75;61.92;102552.78;4780525;30;20168;-80
2021/11/20 09:56:26;;;;;;;8.18;2.35;;;;;;;17.77;61.45;102548.47;4783396;30;20039;-80
2021/11/20 09:59:16;;;;;;;12.68;2.90;;;;;;;17.78;61.82;102555.41;4782376;30;20366;-80
2021/11/20 10:02:01;;;;;;;8.85;2.70;;;;;;;17.79;61.90;102546.78;4779292;30;20034;-80
2021/11/20 10:04:34;;;;;;;9.90;2.70;;;;;;;17.81;61.36;102541.56;4779275;30;20466;-80
2021/11/20 10:07:16;;;;;;;13.60;2.70;;;;;;;17.82;61.28;102543.38;4780938;30;20039;-80
2021/11/20 10:09:55;;;;;;;9.02;2.58;;;;;;;17.82;62.47;102549.44;4778901;30;20032;-80
2021/11/20 10:12:44;;;;;;;10.30;2.58;;;;;;;17.83;61.45;102546.00;4778594;30;20031;-80
2021/11/20 10:15:18;;;;;;;7.82;2.70;;;;;;;17.84;61.77;102534.72;4780931;30;20089;-80
2021/11/20 10:17:46;;;;;;;6.45;2.42;;;;;;;17.86;61.39;102546.06;4783036;30;20036;-80
2021/11/20 10:20:36;;;;;;;11.57;2.67;;;;;;;17.87;61.42;102541.72;4778917;30;20034;-80
2021/11/20 10:23:11;;;;;;;7.95;2.50;;;;;;;17.84;61.30;102529.53;4778634;30;20100;-80
2021/11/20 10:26:24;;;;;;;9.85;2.70;;;;;;;17.88;61.26;102520.03;4778632;30;20039;-80
2021/11/20 10:29:02;;;;;;;6.60;2.60;;;;;;;17.86;61.78;102530.44;4779549;30;20035;-80
2021/11/20 10:31:33;;;;;;;4.88;2.30;;;;;;;17.89;61.21;102527.84;4776474;30;20501;-80
2021/11/20 10:34:07;;;;;;;7.15;2.45;;;;;;;17.91;61.31;102522.69;4776841;30;20036;-80
2021/11/20 10:36:45;;;;;;;5.93;2.67;;;;;;;17.87;61.75;102521.75;4778360;30;20039;-80
2021/11/20 10:39:16;;;;;;;4.47;2.42;;;;;;;17.87;62.36;102510.47;4777130;30;20028;-80
2021/11/20 10:41:44;;;;;;;5.82;2.20;;;;;;;17.91;61.32;102507.06;4778589;30;20023;-80
2021/11/20 10:44:13;;;;;;;4.32;2.22;;;;;;;17.91;61.47;102514.88;4779545;30;20034;-80
2021/11/20 10:47:27;;;;;;;3.60;2.17;;;;;;;17.92;61.63;102513.13;4778146;30;20035;-80
2021/11/20 10:50:17;;;;;;;3.97;2.03;;;;;;;17.93;61.52;102507.09;4775255;30;20036;-80
2021/11/20 10:53:09;;;;;;;5.05;2.70;;;;;;;17.93;61.23;102500.13;4775504;30;20040;-80
2021/11/20 10:55:59;;;;;;;4.15;2.65;;;;;;;17.93;61.39;102499.28;4790019;29;20043;-80
2021/11/20 10:59:02;;;;;;;3.08;2.33;;;;;;;17.91;61.39;102488.81;4781166;30;20027;-87
2021/11/20 11:02:23;;;;;;;4.22;2.22;;;;;;;17.91;61.50;102488.81;4780411;29;20509;-80
2021/11/20 11:05:18;;;;;;;3.58;2.40;;;;;;;17.89;61.38;102488.78;4738543;30;20070;-80
2021/11/20 11:08:10;;;;;;;3.35;2.33;;;;;;;17.91;61.70;102482.75;4742417;30;20040;-81
2021/11/20 11:24:56;;;;;;;4.13;2.50;;;;;;;17.88;61.55;102449.72;4723386;30;20060;-85
2021/11/20 11:35:14;;;;;;;6.93;2.80;;;;;;;17.92;63.35;102429.78;4715441;30;20194;-79
2021/11/20 11:38:07;;;;;;;6.32;2.88;;;;;;;17.95;65.77;102427.25;4705524;30;20140;-78
2021/11/20 11:40:57;;;;;;;8.02;3.20;;;;;;;17.96;65.78;102427.25;4773981;30;20032;-78
2021/11/20 11:43:47;;;;;;;14.60;3.13;;;;;;;17.93;64.54;102413.31;4777694;30;20091;-78
2021/11/20 11:46:56;;;;;;;12.63;3.15;;;;;;;17.80;66.70;102418.31;4792233;30;20035;-82
2021/11/20 11:49:39;;;;;;;10.82;2.75;;;;;;;17.76;67.12;102406.09;4774749;30;20135;-79
2021/11/20 11:52:47;;;;;;;23.02;3.72;;;;;;;17.69;67.23;102396.44;4777471;30;20111;-82
2021/11/20 11:55:35;;;;;;;16.20;3.28;;;;;;;17.71;66.39;102397.34;4779950;30;20059;-78
2021/11/20 11:58:38;;;;;;;28.08;3.95;;;;;;;17.65;67.32;102397.25;4789659;30;20484;-81
2021/11/20 12:01:06;;;;;;;11.55;3.25;;;;;;;17.61;66.41;102387.66;4788936;30;20023;-81
2021/11/20 12:03:45;;;;;;;13.00;3.55;;;;;;;17.59;67.96;102385.00;4788919;30;20032;-81
2021/11/20 12:06:16;;;;;;;15.50;3.15;;;;;;;17.58;66.78;102378.06;4778176;30;20033;-78
2021/11/20 12:08:47;;;;;;;8.52;3.75;;;;;;;17.60;67.48;102370.28;4776268;30;20032;-78
2021/11/20 12:11:28;;;;;;;12.43;3.78;;;;;;;17.59;66.81;102372.00;4777002;30;20032;-78
2021/11/20 12:14:08;;;;;;;10.63;3.60;;;;;;;17.59;67.27;102372.00;4775471;30;20051;-78
2021/11/20 12:16:41;;;;;;;7.47;3.55;;;;;;;17.58;67.71;102361.59;4775362;30;20027;-78
2021/11/20 12:19:19;;;;;;;;;;;;;;;17.58;67.74;102361.59;4787730;30;20046;-81
2021/11/20 12:21:59;;;;;;;5.47;3.47;;;;;;;17.59;67.60;102348.56;4789609;30;19913;-81
2021/11/20 12:25:01;;;;;;;6.88;3.67;;;;;;;17.58;67.04;102356.38;4789723;30;20027;-81
2021/11/20 12:27:27;;;;;;;7.03;3.80;;;;;;;17.59;67.65;102358.13;4784656;30;20032;-78
2021/11/20 12:29:58;;;;;;;5.45;3.65;;;;;;;17.59;67.38;102339.88;4777796;30;20093;-76
2021/11/20 12:32:54;;;;;;;7.90;3.90;;;;;;;17.58;67.56;102339.03;4779785;30;20027;-78
2021/11/20 12:35:41;;;;;;;6.47;3.80;;;;;;;17.59;67.52;102329.47;4781998;30;20131;-82
2021/11/20 12:38:35;;;;;;;7.15;4.00;;;;;;;17.60;66.27;102328.66;4782244;30;20036;-80
2021/11/20 12:41:40;;;;;;;4.70;3.47;;;;;;;17.61;67.33;102327.78;4780573;30;20031;-76
2021/11/20 12:44:05;;;;;;;6.53;3.55;;;;;;;17.62;66.42;102319.13;4764316;30;20035;-79
2021/11/20 12:46:59;;;;;;;5.28;3.67;;;;;;;17.62;67.54;102319.13;4767427;30;20032;-80
2021/11/20 12:50:01;;;;;;;5.28;3.95;;;;;;;17.60;66.56;102306.09;4780419;30;20107;-81
2021/11/20 12:52:38;;;;;;;6.25;3.97;;;;;;;17.61;67.58;102299.13;4784189;30;20054;-79
2021/11/20 12:55:19;;;;;;;9.68;3.92;;;;;;;17.64;66.92;102296.59;4780354;30;20081;-78
2021/11/20 12:58:05;;;;;;;6.85;4.00;;;;;;;17.64;66.94;102294.00;4779488;30;20103;-78
2021/11/20 13:00:36;;;;;;;5.93;4.20;;;;;;;17.62;66.34;102282.69;4779918;30;20462;-79
2021/11/20 13:03:22;;;;;;;6.00;4.30;;;;;;;17.61;67.20;102286.13;4794796;30;20044;-80
2021/11/20 13:06:24;;;;;;;5.03;3.90;;;;;;;17.61;66.24;102273.09;4781510;30;20122;-81
2021/11/20 13:09:24;;;;;;;5.85;4.43;;;;;;;17.60;66.68;102273.97;4764309;30;20106;-80
2021/11/20 13:12:02;;;;;;;5.75;4.00;;;;;;;17.60;67.39;102264.44;4761946;30;20047;-80
2021/11/20 13:15:00;;;;;;;4.65;3.95;;;;;;;17.60;67.41;102260.97;4761016;30;20036;-80
2021/11/20 13:18:14;;;;;;;5.32;4.32;;;;;;;17.60;66.61;102248.81;4762045;30;20059;-81
2021/11/20 13:24:38;;;;;;;6.13;4.20;;;;;;;17.60;67.13;102248.81;4788130;30;20038;-82
2021/11/20 13:38:03;;;;;;;7.10;4.40;;;;;;;17.97;71.27;102211.97;5114285;24;20073;-79
2021/11/20 13:41:07;;;;;;;10.55;4.72;;;;;;;18.01;69.89;102201.59;4842998;29;20030;-80
2021/11/20 13:44:12;;;;;;;7.15;4.88;;;;;;;17.64;70.83;102201.16;4857793;29;20479;-81
2021/11/20 13:50:17;;;;;;;6.25;4.70;;;;;;;17.21;72.00;102192.78;4864677;29;20110;-82
2021/11/20 13:53:23;;;;;;;9.95;5.15;;;;;;;17.15;71.38;102199.63;4844417;29;20038;-83
2021/11/20 13:55:59;;;;;;;10.10;4.88;;;;;;;17.08;71.80;102195.22;4860671;29;20030;-82
2021/11/20 13:58:31;;;;;;;16.60;5.32;;;;;;;17.08;71.27;102185.66;4859233;29;20109;-81
2021/11/20 14:01:00;;;;;;;12.75;4.43;;;;;;;17.11;70.77;102180.50;4832125;29;20053;-80
2021/11/20 14:03:29;;;;;;;63.70;6.00;;;;;;;17.17;72.44;102180.59;4834464;29;20026;-80
2021/11/20 14:06:01;;;;;;;17.77;5.13;;;;;;;17.06;72.21;102169.16;4845888;29;20095;-81
2021/11/20 14:08:43;;;;;;;18.15;5.20;;;;;;;17.03;72.12;102164.81;4860897;29;20029;-83
2021/11/20 14:11:18;;;;;;;14.85;4.93;;;;;;;17.00;72.18;102154.34;4858403;29;20052;-81
2021/11/20 14:13:50;;;;;;;7.53;5.10;;;;;;;17.01;71.51;102148.31;4853100;29;20101;-81
2021/11/20 14:16:26;;;;;;;8.70;4.80;;;;;;;16.98;72.13;102140.44;4851030;29;20030;-79
2021/11/20 14:18:51;;;;;;;13.25;5.00;;;;;;;16.98;72.83;102144.78;4850030;29;20038;-80
2021/11/20 14:21:26;;;;;;;9.10;4.80;;;;;;;16.97;71.79;102141.31;4823101;29;20038;-80
2021/11/20 14:24:02;;;;;;;8.45;5.00;;;;;;;16.96;71.83;102143.88;4835648;29;20369;-80
2021/11/20 14:26:43;;;;;;;9.48;5.05;;;;;;;16.95;72.87;102144.75;4845299;29;20034;-81
2021/11/20 14:29:48;;;;;;;6.80;4.35;;;;;;;16.96;72.21;102143.88;4843372;29;20026;-81
2021/11/20 14:32:21;;;;;;;6.45;5.03;;;;;;;16.95;72.29;102140.41;4848760;29;20036;-82
2021/11/20 14:34:50;;;;;;;7.60;5.35;;;;;;;16.91;72.26;102135.16;4830387;29;20042;-81
2021/11/20 14:37:30;;;;;;;9.32;5.20;;;;;;;16.93;72.09;102133.44;4848592;29;20049;-82
2021/11/20 14:40:06;;;;;;;9.35;4.97;;;;;;;16.91;72.14;102129.94;4861121;29;20046;-81
2021/11/20 14:46:00;;;;;;;8.73;4.53;;;;;;;16.92;71.82;102116.06;4861067;29;20029;-80
2021/11/20 14:48:31;;;;;;;7.68;5.00;;;;;;;16.92;72.30;102110.88;4836959;29;20033;-80
2021/11/20 14:51:03;;;;;;;9.07;4.47;;;;;;;16.90;72.13;102103.09;4837132;29;20057;-81
2021/11/20 14:53:31;;;;;;;6.75;4.50;;;;;;;16.90;71.73;102102.19;4855809;29;20114;-81
2021/11/20 14:56:17;;;;;;;6.70;4.90;;;;;;;16.90;73.10;102099.59;4839335;29;20026;-80
2021/11/20 14:58:44;;;;;;;6.32;4.68;;;;;;;16.90;72.12;102097.88;4847608;29;20037;-81
2021/11/20 15:01:10;;;;;;;6.32;4.45;;;;;;;16.89;71.90;102096.13;4846386;29;20072;-80
2021/11/20 15:03:42;;;;;;;6.53;4.82;;;;;;;16.88;72.54;102094.38;4831394;29;20042;-80
2021/11/20 15:06:10;;;;;;;6.25;4.80;;;;;;;16.90;72.02;102095.28;4820492;29;20518;-80
2021/11/20 15:08:37;;;;;;;6.82;4.60;;;;;;;16.90;72.27;102087.47;4820750;29;20091;-80
2021/11/20 15:11:06;;;;;;;6.50;4.85;;;;;;;16.88;72.58;102083.97;4828278;29;20093;-81
2021/11/20 15:13:33;;;;;;;7.30;4.95;;;;;;;16.90;70.93;102077.06;4837194;29;20034;-79
2021/11/20 15:15:58;;;;;;;7.05;5.18;;;;;;;16.90;71.79;102081.38;4817558;29;20038;-80
2021/11/20 15:18:24;;;;;;;7.50;5.20;;;;;;;16.90;70.97;102074.47;4817317;29;20041;-79
2021/11/20 15:20:50;;;;;;;5.82;4.65;;;;;;;16.90;71.14;102069.28;4835444;29;20127;-81
2021/11/20 15:23:17;;;;;;;5.93;5.10;;;;;;;16.95;70.39;102069.34;4820521;29;20096;-81
2021/11/20 15:25:44;;;;;;;7.13;4.70;;;;;;;16.97;70.54;102070.22;4836052;29;20101;-81
2021/11/20 15:28:09;;;;;;;7.85;5.57;;;;;;;16.99;69.61;102066.78;4819302;29;20114;-80
2021/11/20 15:31:01;;;;;;;6.40;4.95;;;;;;;17.01;70.50;102059.00;4840120;29;20022;-82
2021/11/20 15:33:32;;;;;;;5.82;5.00;;;;;;;17.10;69.54;102056.53;4847170;29;20098;-81
2021/11/20 15:36:17;;;;;;;7.72;4.82;;;;;;;17.17;67.27;102060.94;4846788;29;20049;-84
2021/11/20 18:10:47;;;;;;;6.40;4.40;;;;;;;17.34;68.33;101902.41;1043014;24;20389;-84
2021/11/20 18:44:33;;;;;;;5.00;4.50;;;;;;;17.30;68.95;101861.63;5115741;24;20038;-83
2021/11/20 18:47:19;;;;;;;4.90;4.20;;;;;;;17.30;68.38;101853.81;4813578;29;20078;-83
2021/11/20 18:52:38;;;;;;;6.35;3.92;;;;;;;17.29;69.47;101854.69;5297441;23;20058;-84
2021/11/20 18:59:11;;;;;;;4.63;3.97;;;;;;;17.27;68.80;101852.06;4812044;30;20062;-87
2021/11/20 19:08:56;;;;;;;5.10;4.03;;;;;;;17.27;68.56;101841.66;4808584;30;20174;-86